Time;durP1;ratioP1;P1;durP2;ratioP2;P2;SDS_P1;SDS_P2;PMS_P1;PMS_P2;Temp;Humidity;BMP_temperature;BMP_pressure;BME280_temperature;BME280_humidity;BME280_pressure;Samples;Min_cycle;Max_cycle;Signal;HPM_P1;HPM_P2
2023/02/16 00:00:49;;;;;;;28.00;14.43;;;0.60;98.50;;;;;;5009620;28;20426;-59
2023/02/16 00:03:21;;;;;;;32.90;13.90;;;0.60;98.30;;;;;;5024248;28;20464;-59
2023/02/16 00:05:47;;;;;;;29.17;15.47;;;0.60;98.20;;;;;;5022582;28;20550;-59
2023/02/16 00:08:13;;;;;;;29.87;13.83;;;0.60;98.10;;;;;;5021933;28;20433;-59
2023/02/16 00:10:39;;;;;;;28.80;14.93;;;0.50;97.70;;;;;;5024248;28;20457;-59
2023/02/16 00:13:46;;;;;;;28.73;14.50;;;0.50;98.30;;;;;;5026505;28;20181;-59
2023/02/16 00:16:23;;;;;;;28.93;13.17;;;0.50;97.90;;;;;;5013074;28;20476;-61
2023/02/16 00:18:50;;;;;;;24.33;13.10;;;0.50;98.20;;;;;;5032023;28;20438;-59
2023/02/16 00:21:16;;;;;;;26.00;14.00;;;0.50;98.40;;;;;;5026368;28;20447;-60
2023/02/16 00:23:41;;;;;;;24.20;12.60;;;0.50;98.70;;;;;;5025112;28;20449;-59
2023/02/16 00:26:14;;;;;;;30.20;15.33;;;0.50;99.90;;;;;;5026362;28;20825;-59
2023/02/16 00:28:41;;;;;;;22.70;13.20;;;0.50;99.90;;;;;;5025968;28;20194;-60
2023/02/16 00:31:14;;;;;;;29.17;14.70;;;0.50;99.90;;;;;;5025166;28;20428;-59
2023/02/16 00:33:39;;;;;;;25.53;13.23;;;0.60;99.90;;;;;;5023456;28;20479;-59
2023/02/16 00:36:05;;;;;;;31.70;15.40;;;0.60;99.30;;;;;;5034609;28;20457;-59
2023/02/16 00:38:31;;;;;;;28.43;15.37;;;0.60;98.80;;;;;;5031010;28;20184;-59
2023/02/16 00:40:57;;;;;;;28.60;14.57;;;0.60;97.50;;;;;;5022556;28;20718;-59
2023/02/16 00:43:26;;;;;;;26.40;14.73;;;0.50;96.40;;;;;;5035438;28;20173;-59
2023/02/16 00:45:52;;;;;;;36.47;14.07;;;0.50;96.30;;;;;;5019895;28;21140;-59
2023/02/16 00:48:18;;;;;;;29.10;14.70;;;0.40;96.10;;;;;;5024188;28;20495;-59
2023/02/16 00:50:43;;;;;;;25.33;14.17;;;0.30;96.50;;;;;;5026964;28;20199;-60
2023/02/16 00:53:10;;;;;;;30.63;14.07;;;0.30;97.60;;;;;;5029720;28;20178;-59
2023/02/16 00:55:37;;;;;;;24.50;13.10;;;0.30;98.30;;;;;;5025308;28;20210;-59
2023/02/16 00:58:10;;;;;;;24.87;13.47;;;0.30;98.40;;;;;;5010553;28;20425;-58
2023/02/16 01:00:49;;;;;;;25.13;13.50;;;0.30;99.00;;;;;;5025687;28;20444;-59
2023/02/16 01:03:21;;;;;;;27.13;13.80;;;0.30;99.70;;;;;;5010371;28;20441;-58
2023/02/16 01:05:47;;;;;;;24.47;13.53;;;0.30;98.80;;;;;;5047532;28;20436;-59
2023/02/16 01:13:38;;;;;;;24.57;13.13;;;0.20;99.60;;;;;;5025187;28;20441;-59
2023/02/16 01:16:15;;;;;;;25.50;13.60;;;0.20;99.20;;;;;;5032516;28;20460;-59
2023/02/16 01:18:41;;;;;;;27.47;13.40;;;0.20;98.80;;;;;;5036889;28;20427;-58
2023/02/16 01:21:06;;;;;;;23.70;13.00;;;0.20;98.90;;;;;;5042234;28;20447;-59
2023/02/16 01:23:32;;;;;;;23.70;13.10;;;0.10;99.20;;;;;;5034644;28;20233;-59
2023/02/16 01:25:57;;;;;;;26.77;13.40;;;0.10;99.50;;;;;;5023649;28;20194;-59
2023/02/16 01:28:25;;;;;;;25.33;13.13;;;0.10;99.60;;;;;;5029034;28;20193;-59
2023/02/16 01:30:51;;;;;;;28.87;13.57;;;0.10;99.90;;;;;;5030437;28;20206;-60
2023/02/16 01:33:18;;;;;;;28.20;13.03;;;0.10;99.20;;;;;;5031480;28;20451;-59
2023/02/16 01:35:44;;;;;;;27.67;13.70;;;0.00;98.90;;;;;;5028716;28;20526;-60
2023/02/16 01:38:18;;;;;;;23.60;12.70;;;0.10;98.90;;;;;;5028858;28;20917;-59
2023/02/16 01:41:24;;;;;;;21.33;12.27;;;0.00;98.30;;;;;;5028395;28;20799;-59
2023/02/16 01:43:55;;;;;;;24.07;12.00;;;0.00;98.00;;;;;;5010761;28;20534;-59
2023/02/16 01:46:31;;;;;;;26.63;13.60;;;0.00;98.30;;;;;;5028626;28;20508;-59
2023/02/16 01:48:58;;;;;;;30.17;14.00;;;0.00;97.80;;;;;;5025741;28;20461;-59
2023/02/16 01:51:31;;;;;;;25.63;13.43;;;-0.10;98.20;;;;;;5027759;28;20451;-59
2023/02/16 01:54:17;;;;;;;24.43;13.07;;;-0.10;97.90;;;;;;5033971;28;20439;-60
2023/02/16 01:56:51;;;;;;;27.43;13.60;;;-0.10;98.20;;;;;;5026129;28;20460;-59
2023/02/16 01:59:31;;;;;;;23.67;12.87;;;-0.10;98.70;;;;;;5028550;28;20429;-59
2023/02/16 02:02:02;;;;;;;26.97;14.10;;;-0.20;98.70;;;;;;5022151;28;20952;-58
2023/02/16 02:07:36;;;;;;;22.60;11.60;;;-0.20;99.00;;;;;;5024310;28;20438;-59
2023/02/16 02:10:08;;;;;;;25.00;12.57;;;-0.20;99.90;;;;;;5030491;28;20462;-59
2023/02/16 02:12:39;;;;;;;26.37;13.50;;;-0.20;99.90;;;;;;5031096;28;20408;-59
2023/02/16 02:15:05;;;;;;;20.77;13.00;;;-0.20;99.90;;;;;;5028747;28;20498;-58
2023/02/16 02:17:31;;;;;;;26.50;13.57;;;-0.20;99.90;;;;;;5028513;28;22079;-59
2023/02/16 02:23:42;;;;;;;21.10;11.40;;;-0.20;99.30;;;;;;4984272;28;20464;-59
2023/02/16 02:26:14;;;;;;;25.43;12.70;;;-0.30;99.20;;;;;;5029141;28;20527;-58
2023/02/16 02:28:46;;;;;;;26.97;13.53;;;-0.30;99.70;;;;;;5033221;28;20448;-59
2023/02/16 02:31:29;;;;;;;28.10;13.00;;;-0.30;99.90;;;;;;5027693;28;20482;-59
2023/02/16 02:34:15;;;;;;;28.33;12.33;;;-0.30;99.90;;;;;;5031247;28;20443;-59
2023/02/16 02:36:59;;;;;;;24.40;12.97;;;-0.40;99.90;;;;;;5031012;28;21186;-59
2023/02/16 02:39:49;;;;;;;28.13;14.43;;;-0.40;99.90;;;;;;5024422;28;20524;-59
2023/02/16 02:42:30;;;;;;;26.10;12.70;;;-0.40;99.90;;;;;;5024492;28;20448;-59
2023/02/16 02:45:15;;;;;;;25.30;13.73;;;-0.40;99.90;;;;;;5017499;28;20516;-59
2023/02/16 02:47:43;;;;;;;22.00;12.63;;;-0.40;99.90;;;;;;5028455;28;21322;-59
2023/02/16 02:50:34;;;;;;;23.20;12.23;;;-0.40;99.90;;;;;;5028641;28;20522;-59
2023/02/16 02:53:02;;;;;;;27.17;12.53;;;-0.40;99.90;;;;;;5027694;28;20429;-59
2023/02/16 03:01:00;;;;;;;28.70;13.60;;;-0.50;99.90;;;;;;5019836;28;20431;-58
2023/02/16 03:03:31;;;;;;;20.70;12.20;;;-0.50;99.90;;;;;;5025981;28;20428;-59
2023/02/16 03:06:08;;;;;;;23.80;13.43;;;-0.50;99.90;;;;;;5037214;28;20543;-59
2023/02/16 03:08:38;;;;;;;22.37;12.67;;;-0.50;99.90;;;;;;5029393;28;20439;-59
2023/02/16 03:14:04;;;;;;;27.83;13.30;;;-0.50;99.90;;;;;;5018462;28;20498;-59
2023/02/16 03:16:35;;;;;;;21.53;12.10;;;-0.50;99.90;;;;;;5023784;28;20984;-58
2023/02/16 03:30:09;;;;;;;25.57;12.80;;;-0.70;99.90;;;;;;5022856;28;20463;-59
2023/02/16 03:32:36;;;;;;;24.63;13.70;;;-0.70;99.90;;;;;;5027873;28;20971;-59
2023/02/16 03:35:02;;;;;;;22.53;12.13;;;-0.70;99.90;;;;;;5027146;28;20425;-59
2023/02/16 03:37:28;;;;;;;26.93;12.97;;;-0.70;99.90;;;;;;5026614;28;20472;-59
2023/02/16 03:42:38;;;;;;;36.30;13.63;;;-0.80;99.90;;;;;;5024467;28;20197;-59
2023/02/16 03:45:04;;;;;;;24.07;12.90;;;-0.80;99.90;;;;;;5028450;28;20416;-58
2023/02/16 03:47:29;;;;;;;27.10;13.10;;;-0.80;99.90;;;;;;5022939;28;20240;-59
2023/02/16 03:49:55;;;;;;;25.17;12.60;;;-0.80;99.90;;;;;;5016728;28;20542;-59
2023/02/16 03:52:20;;;;;;;30.47;12.40;;;-0.80;99.90;;;;;;5027435;28;20189;-59
2023/02/16 03:54:46;;;;;;;27.30;13.67;;;-0.80;99.90;;;;;;5030889;28;20821;-58
2023/02/16 03:57:12;;;;;;;22.93;12.73;;;-0.80;99.90;;;;;;5026801;28;20174;-59
2023/02/16 03:59:37;;;;;;;21.97;12.40;;;-0.80;99.90;;;;;;5020471;28;20185;-59
2023/02/16 04:02:03;;;;;;;23.27;13.10;;;-0.90;99.90;;;;;;5023421;28;20362;-59
2023/02/16 04:04:29;;;;;;;24.80;12.03;;;-0.90;99.90;;;;;;5026334;28;20185;-59
2023/02/16 04:06:54;;;;;;;22.13;13.20;;;-0.90;99.90;;;;;;5025385;28;20811;-59
2023/02/16 04:09:20;;;;;;;24.83;12.30;;;-0.90;99.90;;;;;;5027105;28;20297;-58
2023/02/16 04:14:30;;;;;;;22.23;11.47;;;-0.90;99.90;;;;;;5024951;28;20204;-59
2023/02/16 04:16:55;;;;;;;23.07;11.80;;;-0.90;99.90;;;;;;5027615;28;20480;-59
2023/02/16 04:19:23;;;;;;;22.20;11.97;;;-1.00;99.90;;;;;;5025807;28;20264;-59
2023/02/16 04:21:51;;;;;;;25.43;11.80;;;-0.90;99.90;;;;;;5020339;28;20182;-59
2023/02/16 04:24:17;;;;;;;23.63;11.47;;;-1.00;99.90;;;;;;5025139;28;20957;-59
2023/02/16 04:26:44;;;;;;;20.47;11.20;;;-1.00;99.90;;;;;;5024169;28;20464;-59
2023/02/16 04:29:10;;;;;;;22.97;12.77;;;-1.00;99.90;;;;;;5035169;28;20263;-59
2023/02/16 04:31:35;;;;;;;19.73;11.80;;;-1.00;99.90;;;;;;5025457;28;20433;-59
2023/02/16 04:34:01;;;;;;;20.67;11.20;;;-1.00;99.90;;;;;;5023018;28;20977;-59
2023/02/16 04:36:27;;;;;;;20.27;11.40;;;-1.00;99.90;;;;;;5028524;28;20201;-59
2023/02/16 04:38:52;;;;;;;24.17;11.90;;;-1.00;99.90;;;;;;5022986;28;20186;-59
2023/02/16 04:41:18;;;;;;;18.77;11.20;;;-1.10;99.90;;;;;;5025247;28;20181;-59
2023/02/16 04:43:44;;;;;;;23.73;11.70;;;-1.00;99.90;;;;;;5039598;28;20188;-58
2023/02/16 04:46:09;;;;;;;24.97;12.10;;;-1.10;99.90;;;;;;5029250;28;20201;-58
2023/02/16 04:48:35;;;;;;;21.70;12.10;;;-1.10;99.90;;;;;;5026309;28;20562;-58
2023/02/16 04:51:03;;;;;;;25.73;12.40;;;-1.10;99.90;;;;;;5026008;28;20637;-59
2023/02/16 04:53:28;;;;;;;21.00;11.77;;;-1.10;99.90;;;;;;5022185;28;20662;-59
2023/02/16 04:55:54;;;;;;;32.37;13.60;;;-1.10;99.90;;;;;;5025277;28;20529;-59
2023/02/16 04:58:20;;;;;;;26.43;12.60;;;-1.10;99.90;;;;;;5027731;28;20651;-58
2023/02/16 05:00:45;;;;;;;19.20;11.23;;;-1.10;99.90;;;;;;5030246;28;20761;-59
2023/02/16 05:03:11;;;;;;;25.10;12.40;;;-1.10;99.90;;;;;;5013329;28;20174;-59
2023/02/16 05:05:37;;;;;;;21.33;12.20;;;-1.10;99.90;;;;;;5024959;28;20206;-59
2023/02/16 05:08:02;;;;;;;22.73;12.10;;;-1.20;99.90;;;;;;5010613;28;20780;-59
2023/02/16 05:10:28;;;;;;;21.47;11.90;;;-1.20;99.90;;;;;;5025249;28;20213;-60
2023/02/16 05:15:38;;;;;;;26.93;12.50;;;-1.20;99.90;;;;;;5014149;28;20285;-58
2023/02/16 05:18:04;;;;;;;23.17;12.60;;;-1.20;99.90;;;;;;5012603;28;20503;-61
2023/02/16 05:23:13;;;;;;;28.90;13.67;;;-1.30;99.90;;;;;;5014018;28;20440;-59
2023/02/16 05:25:39;;;;;;;22.43;12.70;;;-1.30;99.90;;;;;;4999230;28;20451;-59
2023/02/16 05:28:05;;;;;;;26.13;13.30;;;-1.30;99.90;;;;;;5021835;28;20180;-59
2023/02/16 05:30:30;;;;;;;23.80;13.47;;;-1.30;99.90;;;;;;5019898;28;20823;-60
2023/02/16 05:32:56;;;;;;;28.40;15.57;;;-1.30;99.90;;;;;;5019853;28;20202;-59
2023/02/16 05:35:21;;;;;;;34.30;16.53;;;-1.30;99.90;;;;;;5005717;28;20231;-60
2023/02/16 05:37:47;;;;;;;35.93;15.50;;;-1.40;99.90;;;;;;5006032;28;20273;-59
2023/02/16 05:40:13;;;;;;;34.17;15.17;;;-1.40;99.90;;;;;;5020049;28;20174;-59
2023/02/16 05:42:38;;;;;;;28.07;13.77;;;-1.40;99.90;;;;;;5009725;28;20185;-60
2023/02/16 05:45:04;;;;;;;28.13;15.47;;;-1.40;99.90;;;;;;5013660;28;20181;-58
2023/02/16 05:47:30;;;;;;;31.43;15.10;;;-1.40;99.90;;;;;;5010050;28;20236;-60
2023/02/16 05:49:55;;;;;;;29.33;15.63;;;-1.40;99.90;;;;;;5016574;28;20915;-60
2023/02/16 05:52:21;;;;;;;24.20;14.30;;;-1.40;99.90;;;;;;5023537;28;20186;-60
2023/02/16 05:54:47;;;;;;;28.80;15.10;;;-1.50;99.90;;;;;;5018559;28;20543;-59
2023/02/16 05:57:12;;;;;;;26.97;14.90;;;-1.50;99.90;;;;;;5028150;28;20186;-60
2023/02/16 05:59:38;;;;;;;25.70;13.83;;;-1.50;99.90;;;;;;5027352;28;20202;-60
2023/02/16 06:02:03;;;;;;;21.77;13.00;;;-1.50;99.90;;;;;;5022318;28;20183;-60
2023/02/16 06:04:31;;;;;;;29.97;14.37;;;-1.50;99.90;;;;;;5024541;28;20185;-60
2023/02/16 06:06:57;;;;;;;24.77;13.27;;;-1.50;99.90;;;;;;5026053;28;20221;-60
2023/02/16 06:09:22;;;;;;;23.57;12.30;;;-1.50;99.90;;;;;;5010404;28;20503;-59
2023/02/16 06:11:48;;;;;;;25.27;13.50;;;-1.50;99.90;;;;;;5028727;28;20181;-59
2023/02/16 06:14:16;;;;;;;30.73;15.00;;;-1.60;99.90;;;;;;5033562;28;20240;-60
2023/02/16 06:16:43;;;;;;;25.83;15.20;;;-1.60;99.90;;;;;;5024959;28;20686;-60
2023/02/16 06:19:09;;;;;;;29.10;15.67;;;-1.60;99.90;;;;;;5025728;28;20463;-60
2023/02/16 06:21:36;;;;;;;26.63;14.80;;;-1.60;99.90;;;;;;5021468;28;20893;-59
2023/02/16 06:24:02;;;;;;;31.40;15.40;;;-1.60;99.90;;;;;;5021610;28;20443;-59
2023/02/16 06:26:27;;;;;;;24.43;14.20;;;-1.60;99.90;;;;;;5025401;28;20456;-60
2023/02/16 06:28:55;;;;;;;25.00;14.17;;;-1.60;99.90;;;;;;5026795;28;20519;-58
2023/02/16 06:31:22;;;;;;;29.20;14.10;;;-1.70;99.90;;;;;;5025059;28;20209;-60
2023/02/16 06:33:48;;;;;;;29.77;14.80;;;-1.70;99.90;;;;;;5021836;28;20424;-60
2023/02/16 06:36:14;;;;;;;27.30;14.20;;;-1.70;99.90;;;;;;5025644;28;20506;-59
2023/02/16 06:38:40;;;;;;;27.30;14.97;;;-1.70;99.90;;;;;;5027639;28;20638;-59
2023/02/16 06:41:05;;;;;;;25.57;14.30;;;-1.70;99.90;;;;;;5028772;28;20459;-60
2023/02/16 06:43:31;;;;;;;27.33;13.87;;;-1.70;99.90;;;;;;5022987;28;20507;-60
2023/02/16 06:45:57;;;;;;;27.27;13.83;;;-1.70;99.90;;;;;;5025648;28;20259;-60
2023/02/16 06:48:22;;;;;;;32.37;14.40;;;-1.70;99.90;;;;;;5025454;28;20194;-59
2023/02/16 06:50:48;;;;;;;29.63;15.90;;;-1.70;99.90;;;;;;5019795;28;20271;-60
2023/02/16 06:53:14;;;;;;;32.60;15.70;;;-1.70;99.90;;;;;;5022910;28;20688;-60
2023/02/16 06:55:39;;;;;;;45.60;17.70;;;-1.70;99.90;;;;;;5031847;28;20778;-60
2023/02/16 06:58:06;;;;;;;33.17;17.43;;;-1.70;99.90;;;;;;5030765;28;20183;-60
2023/02/16 07:00:33;;;;;;;41.30;22.80;;;-1.70;99.90;;;;;;5021290;28;20193;-60
2023/02/16 07:02:59;;;;;;;52.27;25.53;;;-1.70;99.90;;;;;;5009328;28;20491;-59
2023/02/16 07:05:25;;;;;;;40.20;22.30;;;-1.70;99.90;;;;;;5006568;28;20474;-60
2023/02/16 07:07:50;;;;;;;36.50;19.90;;;-1.70;99.90;;;;;;5022457;28;20445;-60
2023/02/16 07:10:16;;;;;;;27.93;16.10;;;-1.70;99.90;;;;;;5019487;28;20621;-60
2023/02/16 07:12:42;;;;;;;38.57;18.17;;;-1.60;99.90;;;;;;5017115;28;20178;-59
2023/02/16 07:15:09;;;;;;;31.53;15.80;;;-1.70;99.90;;;;;;5021128;28;21157;-59
2023/02/16 07:17:34;;;;;;;36.90;17.57;;;-1.70;99.90;;;;;;5022958;28;20178;-62
2023/02/16 07:20:00;;;;;;;32.40;16.67;;;-1.70;99.90;;;;;;5020340;28;20435;-59
2023/02/16 07:22:26;;;;;;;29.07;16.03;;;-1.60;99.90;;;;;;5021649;28;20257;-60
2023/02/16 07:24:54;;;;;;;28.57;16.27;;;-1.60;99.90;;;;;;5028331;28;20173;-60
2023/02/16 07:27:20;;;;;;;36.80;17.00;;;-1.60;99.90;;;;;;5025332;28;20428;-59
2023/02/16 07:29:46;;;;;;;28.97;15.50;;;-1.50;99.90;;;;;;5035262;28;20456;-59
2023/02/16 07:32:11;;;;;;;31.63;16.40;;;-1.50;99.90;;;;;;5034600;28;20221;-60
2023/02/16 07:34:37;;;;;;;34.57;17.40;;;-1.40;99.90;;;;;;5017055;28;20562;-60
2023/02/16 07:37:02;;;;;;;34.37;16.57;;;-1.30;99.90;;;;;;5018358;28;20196;-60
2023/02/16 07:39:29;;;;;;;33.77;16.13;;;-1.30;99.90;;;;;;5022409;28;20188;-56
2023/02/16 07:41:55;;;;;;;27.33;16.03;;;-1.20;99.90;;;;;;5021966;28;20909;-59
2023/02/16 07:44:21;;;;;;;38.10;17.20;;;-1.20;99.90;;;;;;5020671;28;20440;-59
2023/02/16 07:46:46;;;;;;;32.90;17.17;;;-1.10;99.90;;;;;;5029333;28;20205;-60
2023/02/16 07:49:12;;;;;;;38.87;18.73;;;-1.10;99.90;;;;;;5035399;28;20196;-60
2023/02/16 07:51:39;;;;;;;34.87;16.60;;;-1.00;99.90;;;;;;5028804;28;20192;-59
2023/02/16 07:54:05;;;;;;;37.23;16.63;;;-0.90;99.90;;;;;;5021472;28;20174;-59
2023/02/16 07:56:32;;;;;;;34.97;16.20;;;-0.80;99.90;;;;;;5021543;28;21625;-60
2023/02/16 07:58:59;;;;;;;28.47;16.03;;;-0.80;99.90;;;;;;5017713;28;20469;-62
2023/02/16 08:01:26;;;;;;;32.53;16.70;;;-0.70;99.90;;;;;;5025108;28;20427;-59
2023/02/16 08:03:52;;;;;;;35.40;18.97;;;-0.70;99.90;;;;;;5014399;28;20899;-60
2023/02/16 08:06:19;;;;;;;33.17;17.33;;;-0.60;99.90;;;;;;5004174;28;22245;-60
2023/02/16 08:08:45;;;;;;;34.53;16.50;;;-0.50;99.90;;;;;;5026345;28;20436;-60
2023/02/16 08:11:19;;;;;;;36.17;18.70;;;-0.50;99.90;;;;;;5026543;28;20445;-60
2023/02/16 08:13:46;;;;;;;38.33;18.53;;;-0.40;99.90;;;;;;5031010;28;20425;-59
2023/02/16 08:16:26;;;;;;;36.43;18.70;;;-0.40;99.90;;;;;;5023721;28;20473;-60
2023/02/16 08:18:55;;;;;;;35.20;18.90;;;-0.30;99.90;;;;;;5028165;28;20424;-60
2023/02/16 08:21:22;;;;;;;41.27;19.43;;;-0.20;99.90;;;;;;5031794;28;20432;-60
2023/02/16 08:23:53;;;;;;;35.90;17.90;;;-0.10;99.90;;;;;;5023550;28;20961;-60
2023/02/16 08:26:21;;;;;;;41.13;20.30;;;0.00;99.90;;;;;;5023167;28;20452;-60
2023/02/16 08:28:48;;;;;;;49.80;19.90;;;0.10;99.90;;;;;;5021382;28;21129;-62
2023/02/16 08:31:19;;;;;;;56.53;21.97;;;0.10;99.90;;;;;;5032839;28;20527;-60
2023/02/16 08:33:45;;;;;;;51.53;21.37;;;0.20;99.90;;;;;;5021228;28;20434;-59
2023/02/16 08:36:19;;;;;;;43.13;21.07;;;0.30;99.90;;;;;;5026308;28;20487;-60
2023/02/16 08:38:48;;;;;;;42.07;20.40;;;0.40;99.90;;;;;;5026484;28;20448;-60
2023/02/16 08:41:14;;;;;;;47.17;21.03;;;0.50;99.90;;;;;;5008103;28;20436;-59
2023/02/16 08:43:40;;;;;;;40.50;20.53;;;0.60;99.90;;;;;;5021523;28;20857;-59
2023/02/16 08:46:06;;;;;;;40.93;20.60;;;0.60;99.90;;;;;;5030932;28;20511;-60
2023/02/16 08:48:34;;;;;;;39.30;18.73;;;0.70;99.90;;;;;;5025987;28;20711;-61
2023/02/16 08:51:00;;;;;;;41.20;19.33;;;0.80;99.90;;;;;;5026383;28;21051;-59
2023/02/16 08:53:30;;;;;;;45.30;19.77;;;0.90;99.90;;;;;;5027025;28;20475;-60
2023/02/16 08:55:56;;;;;;;49.70;21.27;;;1.00;99.90;;;;;;5025335;28;20494;-60
2023/02/16 08:58:23;;;;;;;27.80;17.10;;;1.00;99.90;;;;;;5029710;28;20441;-60
2023/02/16 09:00:49;;;;;;;32.20;15.87;;;1.10;99.90;;;;;;5030162;28;21098;-60
2023/02/16 09:03:17;;;;;;;32.73;16.60;;;1.20;99.90;;;;;;5014434;28;20437;-59
2023/02/16 09:05:44;;;;;;;31.20;17.03;;;1.30;99.90;;;;;;5026265;28;20564;-59
2023/02/16 09:08:10;;;;;;;27.97;15.20;;;1.40;99.90;;;;;;5024092;28;20491;-60
2023/02/16 09:10:35;;;;;;;38.00;18.00;;;1.40;99.90;;;;;;5032483;28;20479;-59
2023/02/16 09:13:02;;;;;;;39.70;18.07;;;1.50;99.90;;;;;;5014308;28;20270;-60
2023/02/16 09:15:27;;;;;;;43.70;19.90;;;1.60;99.90;;;;;;5008873;28;20712;-59
2023/02/16 09:17:53;;;;;;;30.43;14.50;;;1.70;99.90;;;;;;5031043;28;20948;-59
2023/02/16 09:20:22;;;;;;;22.43;12.83;;;1.80;99.90;;;;;;5032320;28;20182;-60
2023/02/16 09:22:48;;;;;;;30.23;14.83;;;1.90;99.90;;;;;;5025969;28;20604;-62
2023/02/16 09:25:14;;;;;;;27.53;13.90;;;2.10;99.90;;;;;;5005793;28;20514;-60
2023/02/16 09:27:40;;;;;;;31.63;16.17;;;2.20;99.90;;;;;;5029273;28;20178;-59
2023/02/16 09:30:08;;;;;;;28.17;15.00;;;2.40;99.90;;;;;;5039587;28;20870;-59
2023/02/16 09:32:34;;;;;;;28.23;15.57;;;2.50;99.90;;;;;;5028447;28;20521;-59
2023/02/16 09:35:00;;;;;;;36.17;15.03;;;2.60;99.90;;;;;;5025808;28;20522;-59
2023/02/16 09:37:26;;;;;;;30.73;16.80;;;2.80;99.90;;;;;;5028432;28;20529;-60
2023/02/16 09:39:51;;;;;;;29.97;16.77;;;2.90;99.90;;;;;;5018016;28;20183;-60
2023/02/16 09:42:42;;;;;;;32.10;17.30;;;3.10;99.80;;;;;;5021418;28;20717;-60
2023/02/16 09:45:10;;;;;;;28.83;16.27;;;3.30;98.20;;;;;;5035733;28;20177;-59
2023/02/16 09:47:43;;;;;;;29.27;16.50;;;3.40;96.20;;;;;;5025591;28;20442;-60
2023/02/16 09:50:31;;;;;;;30.63;15.87;;;3.60;96.40;;;;;;5010517;28;20454;-60
2023/02/16 09:53:20;;;;;;;30.57;17.00;;;3.80;94.70;;;;;;5016507;28;21135;-60
2023/02/16 09:56:01;;;;;;;37.47;16.53;;;4.00;92.70;;;;;;5006114;28;20521;-60
2023/02/16 09:58:38;;;;;;;30.93;17.57;;;4.20;92.10;;;;;;5028764;28;20786;-60
2023/02/16 10:01:17;;;;;;;33.17;16.40;;;4.40;93.50;;;;;;5026024;28;21006;-60
2023/02/16 10:03:58;;;;;;;34.03;17.70;;;4.60;92.40;;;;;;5038813;28;21157;-60
2023/02/16 10:06:23;;;;;;;31.03;17.33;;;4.90;91.70;;;;;;5016519;28;20454;-61
2023/02/16 10:08:56;;;;;;;32.33;17.30;;;5.10;90.80;;;;;;5012290;28;20817;-60
2023/02/16 10:11:37;;;;;;;31.57;16.73;;;5.40;89.00;;;;;;5027275;28;20180;-61
2023/02/16 10:14:32;;;;;;;37.07;16.97;;;5.60;85.10;;;;;;5041225;28;20444;-60
2023/02/16 10:17:01;;;;;;;28.10;16.17;;;5.90;82.90;;;;;;5022568;28;20814;-61
2023/02/16 10:19:32;;;;;;;52.37;18.37;;;6.10;79.20;;;;;;5034873;28;20437;-61
2023/02/16 10:22:02;;;;;;;33.60;18.33;;;6.30;77.20;;;;;;5024812;28;20430;-61
2023/02/16 10:24:36;;;;;;;36.17;18.03;;;6.40;76.60;;;;;;5009586;28;20635;-61
2023/02/16 10:27:12;;;;;;;33.67;16.27;;;6.60;75.70;;;;;;5013565;28;20453;-60
2023/02/16 10:29:38;;;;;;;35.67;17.37;;;6.80;74.70;;;;;;5025904;28;20835;-61
2023/02/16 10:32:28;;;;;;;34.50;15.90;;;7.00;73.10;;;;;;5028453;28;20434;-61
2023/02/16 10:35:12;;;;;;;29.43;15.10;;;7.20;69.20;;;;;;5027991;28;20179;-61
2023/02/16 10:38:01;;;;;;;33.73;15.73;;;7.30;69.10;;;;;;5025637;28;20441;-61
2023/02/16 10:41:00;;;;;;;23.80;12.93;;;7.60;68.20;;;;;;5023809;28;20455;-60
2023/02/16 10:43:40;;;;;;;27.97;12.60;;;7.80;64.80;;;;;;5003509;28;20455;-60
2023/02/16 10:46:09;;;;;;;21.40;13.00;;;8.00;62.70;;;;;;5011415;28;20467;-61
2023/02/16 10:48:36;;;;;;;25.70;12.63;;;8.30;61.90;;;;;;5042753;28;20449;-61
2023/02/16 10:51:13;;;;;;;21.70;10.77;;;8.50;61.10;;;;;;5028022;28;20464;-59
2023/02/16 10:53:45;;;;;;;23.20;12.30;;;8.70;59.80;;;;;;5028117;28;20418;-58
2023/02/16 10:56:29;;;;;;;19.63;11.27;;;9.00;58.90;;;;;;5040296;28;20441;-59
2023/02/16 10:58:56;;;;;;;25.50;13.50;;;9.20;58.30;;;;;;5029748;28;20810;-58
2023/02/16 11:01:36;;;;;;;25.30;13.03;;;9.50;58.60;;;;;;5027361;28;20431;-58
2023/02/16 11:04:02;;;;;;;23.10;12.87;;;9.70;58.30;;;;;;5023953;28;20931;-59
2023/02/16 11:06:28;;;;;;;30.63;13.20;;;9.80;57.30;;;;;;5025297;28;20451;-59
2023/02/16 11:08:56;;;;;;;20.90;11.23;;;10.00;56.50;;;;;;5033373;28;20429;-59
2023/02/16 11:11:37;;;;;;;19.80;10.80;;;10.20;55.30;;;;;;5027719;28;20841;-59
2023/02/16 11:14:22;;;;;;;15.83;9.80;;;10.30;53.00;;;;;;5025022;28;20430;-62
2023/02/16 11:17:00;;;;;;;20.73;10.80;;;10.40;50.10;;;;;;5019576;28;20457;-59
2023/02/16 11:19:27;;;;;;;19.73;10.70;;;10.50;50.90;;;;;;5020235;28;20434;-58
2023/02/16 11:21:55;;;;;;;14.03;8.87;;;10.70;50.70;;;;;;5032791;28;20437;-60
2023/02/16 11:24:41;;;;;;;16.90;9.80;;;10.70;49.70;;;;;;5024853;28;20896;-58
2023/02/16 11:27:21;;;;;;;16.80;9.00;;;10.80;48.90;;;;;;5024511;28;20450;-58
2023/02/16 11:29:47;;;;;;;17.60;9.20;;;11.00;49.20;;;;;;5024738;28;20477;-59
2023/02/16 11:32:15;;;;;;;13.10;8.33;;;11.20;49.20;;;;;;5021292;28;20431;-59
2023/02/16 11:34:50;;;;;;;17.53;9.70;;;11.40;47.80;;;;;;5033651;28;21014;-59
2023/02/16 11:37:32;;;;;;;17.93;10.10;;;11.60;47.10;;;;;;5035965;28;21147;-58
2023/02/16 11:40:23;;;;;;;17.30;10.50;;;11.70;46.70;;;;;;5020839;28;20445;-58
2023/02/16 11:42:54;;;;;;;19.50;10.00;;;11.90;46.90;;;;;;5021659;28;20457;-59
2023/02/16 11:45:30;;;;;;;14.73;8.60;;;12.10;46.50;;;;;;5019693;28;20541;-58
2023/02/16 11:48:03;;;;;;;16.17;9.37;;;12.40;46.60;;;;;;5018742;28;20442;-59
2023/02/16 11:50:30;;;;;;;15.70;9.17;;;12.70;46.30;;;;;;5021243;28;20558;-58
2023/02/16 11:53:11;;;;;;;18.97;10.90;;;13.10;45.00;;;;;;5020898;28;20988;-58
2023/02/16 11:55:42;;;;;;;18.00;10.70;;;13.50;44.50;;;;;;5014677;28;20461;-63
2023/02/16 11:58:26;;;;;;;16.53;9.60;;;13.70;44.30;;;;;;5005712;28;20548;-60
2023/02/16 12:01:27;;;;;;;16.20;9.20;;;14.10;44.00;;;;;;5016929;28;20426;-59
2023/02/16 12:03:53;;;;;;;19.80;10.40;;;14.50;42.70;;;;;;5021278;28;20445;-55
2023/02/16 12:06:53;;;;;;;16.57;10.10;;;14.90;41.80;;;;;;5025811;28;20456;-57
2023/02/16 12:09:22;;;;;;;15.57;10.30;;;15.40;41.90;;;;;;5021082;28;20222;-58
2023/02/16 12:12:02;;;;;;;17.27;10.07;;;15.80;40.90;;;;;;5018522;28;20766;-60
2023/02/16 12:14:46;;;;;;;14.40;9.27;;;16.40;39.90;;;;;;5022519;28;20485;-60
2023/02/16 12:17:29;;;;;;;16.70;10.13;;;16.80;38.80;;;;;;5018253;28;20445;-57
2023/02/16 12:20:16;;;;;;;17.67;10.07;;;17.20;37.40;;;;;;5016931;28;20433;-60
2023/02/16 12:22:55;;;;;;;22.00;10.00;;;17.50;37.00;;;;;;5019919;28;20844;-58
2023/02/16 12:25:51;;;;;;;18.83;10.40;;;17.90;36.70;;;;;;5020063;28;20440;-58
2023/02/16 12:28:27;;;;;;;20.93;10.60;;;18.40;36.90;;;;;;5014494;28;20465;-59
2023/02/16 12:30:52;;;;;;;15.33;10.20;;;18.80;35.60;;;;;;5014369;28;20470;-61
2023/02/16 12:33:40;;;;;;;14.50;10.63;;;19.10;35.00;;;;;;5024591;28;20431;-60
2023/02/16 12:36:19;;;;;;;15.50;10.73;;;19.30;34.90;;;;;;5017106;28;20199;-59
2023/02/16 12:39:08;;;;;;;14.93;10.30;;;19.60;35.00;;;;;;5020494;28;20783;-61
2023/02/16 12:41:52;;;;;;;15.83;10.10;;;19.80;33.90;;;;;;5019682;28;21001;-60
2023/02/16 12:44:41;;;;;;;19.77;10.60;;;20.10;33.50;;;;;;5020497;28;20430;-61
2023/02/16 12:47:13;;;;;;;12.10;8.80;;;20.20;32.90;;;;;;5020500;28;20501;-61
2023/02/16 12:49:50;;;;;;;15.60;10.40;;;20.20;32.80;;;;;;5023930;28;20206;-61
2023/02/16 12:52:37;;;;;;;20.30;11.00;;;20.30;32.50;;;;;;5011839;28;20476;-61
2023/02/16 12:55:37;;;;;;;17.77;11.63;;;20.40;32.60;;;;;;5017396;28;20175;-61
2023/02/16 12:58:15;;;;;;;16.53;10.13;;;20.50;33.30;;;;;;5015950;28;20183;-60
2023/02/16 13:01:02;;;;;;;13.93;9.47;;;20.50;32.40;;;;;;5022630;28;20434;-60
2023/02/16 13:03:34;;;;;;;15.33;10.20;;;20.50;32.00;;;;;;5019920;28;20431;-60
2023/02/16 13:06:25;;;;;;;14.17;9.17;;;20.20;32.10;;;;;;5024689;28;20484;-61
2023/02/16 13:09:15;;;;;;;16.30;10.80;;;19.70;32.30;;;;;;5017042;28;20488;-61
2023/02/16 13:11:54;;;;;;;15.73;11.40;;;18.70;33.10;;;;;;5022098;28;20457;-61
2023/02/16 13:14:24;;;;;;;13.17;9.93;;;17.80;34.60;;;;;;5028196;28;20433;-61
2023/02/16 13:16:57;;;;;;;18.90;10.87;;;16.90;36.10;;;;;;5021561;28;20450;-60
2023/02/16 13:19:23;;;;;;;18.97;12.03;;;16.00;37.10;;;;;;5001331;28;20431;-60
2023/02/16 13:21:52;;;;;;;16.00;10.70;;;15.40;38.00;;;;;;5019137;28;20446;-61
2023/02/16 13:24:35;;;;;;;15.70;10.30;;;14.80;38.60;;;;;;5023893;28;20284;-60
2023/02/16 13:27:33;;;;;;;16.90;10.10;;;14.10;39.40;;;;;;5025847;28;20453;-60
2023/02/16 13:30:24;;;;;;;16.00;10.00;;;13.60;40.20;;;;;;5017957;28;21065;-60
2023/02/16 13:33:17;;;;;;;17.70;11.07;;;13.20;41.30;;;;;;5020579;28;20465;-60